createdAt,value
2023-11-08T00:01:40.827Z,84.56
2023-11-08T00:04:10.401Z,84.92
2023-11-08T00:06:39.020Z,85.27
2023-11-08T00:09:07.377Z,85.41
2023-11-08T00:11:35.327Z,85.22
2023-11-08T00:14:04.854Z,84.58
2023-11-08T00:16:33.482Z,83.51
2023-11-08T00:19:02.186Z,83.13
2023-11-08T00:21:35.474Z,83.82
2023-11-08T00:24:04.045Z,83.36
2023-11-08T00:26:31.995Z,83.76
2023-11-08T00:29:00.423Z,83.48
2023-11-08T00:31:28.426Z,83.56
2023-11-08T00:33:57.314Z,84.07
2023-11-08T00:36:25.388Z,82.85
2023-11-08T00:38:53.930Z,84.71
2023-11-08T00:41:21.960Z,85.89
2023-11-08T00:43:51.232Z,85.68
2023-11-08T00:46:20.578Z,86.53
2023-11-08T00:48:49.185Z,85.30
2023-11-08T00:51:17.356Z,85.77
2023-11-08T00:53:45.629Z,84.97
2023-11-08T00:56:14.245Z,86.39
2023-11-08T00:58:42.903Z,86.27
2023-11-08T01:01:11.047Z,86.19
2023-11-08T01:03:39.619Z,86.25
2023-11-08T01:06:07.753Z,87.08
2023-11-08T01:08:36.720Z,85.71
2023-11-08T01:11:04.801Z,87.14
2023-11-08T01:13:37.928Z,90.64
2023-11-08T01:16:09.565Z,91.05
2023-11-08T01:18:38.045Z,91.35
2023-11-08T01:21:06.072Z,91.40
2023-11-08T01:23:34.715Z,91.25
2023-11-08T01:26:03.438Z,94.12
2023-11-08T01:28:32.093Z,94.13
2023-11-08T01:31:00.236Z,94.76
2023-11-08T01:33:28.718Z,94.04
2023-11-08T01:35:56.729Z,96.33
2023-11-08T01:38:25.052Z,99.22
2023-11-08T01:40:53.481Z,95.94
2023-11-08T01:43:33.247Z,95.63
2023-11-08T01:46:22.087Z,94.12
2023-11-08T01:48:54.490Z,91.00
2023-11-08T01:51:23.290Z,90.86
2023-11-08T01:53:53.938Z,91.61
2023-11-08T01:56:23.850Z,93.01
2023-11-08T01:58:56.048Z,94.57
2023-11-08T02:01:24.604Z,95.67
2023-11-08T02:03:56.650Z,96.00
2023-11-08T02:06:26.518Z,96.67
2023-11-08T02:08:54.881Z,95.49
2023-11-08T02:11:24.469Z,94.38
2023-11-08T02:13:53.042Z,93.85
2023-11-08T02:16:21.143Z,97.11
2023-11-08T02:18:50.794Z,99.65
2023-11-08T02:21:19.450Z,99.77
2023-11-08T02:23:48.019Z,98.65
2023-11-08T02:26:16.030Z,99.50
2023-11-08T02:28:44.846Z,97.88
2023-11-08T02:31:12.801Z,98.18
2023-11-08T02:33:41.706Z,98.80
2023-11-08T02:36:09.711Z,97.99
2023-11-08T02:38:37.939Z,97.43
2023-11-08T02:41:05.787Z,99.41
2023-11-08T02:43:35.719Z,98.28
2023-11-08T02:46:03.739Z,97.96
2023-11-08T02:48:32.069Z,98.42
2023-11-08T02:51:01.124Z,97.58
2023-11-08T02:53:29.977Z,97.59
2023-11-08T02:55:58.233Z,98.30
2023-11-08T02:58:26.508Z,97.96
2023-11-08T03:00:56.354Z,98.08
2023-11-08T03:03:24.622Z,97.86
2023-11-08T03:05:52.652Z,95.33
2023-11-08T03:08:20.892Z,96.53
2023-11-08T03:10:48.797Z,96.97
2023-11-08T03:13:17.431Z,97.69
2023-11-08T03:15:45.327Z,98.15
2023-11-08T03:18:13.934Z,98.37
2023-11-08T03:20:43.103Z,99.55
2023-11-08T03:23:11.614Z,97.99
2023-11-08T03:25:39.482Z,97.69
2023-11-08T03:28:07.867Z,100.00
2023-11-08T03:30:37.669Z,99.29
2023-11-08T03:33:07.608Z,100.00
2023-11-08T03:35:36.008Z,100.00
2023-11-08T03:38:05.144Z,100.00
2023-11-08T03:40:33.277Z,100.00
2023-11-08T03:43:03.709Z,100.00
2023-11-08T03:45:31.660Z,100.00
2023-11-08T03:48:00.144Z,100.00
2023-11-08T03:50:28.182Z,100.00
2023-11-08T03:52:56.556Z,100.00
2023-11-08T03:55:24.535Z,100.00
2023-11-08T03:57:52.723Z,100.00
2023-11-08T04:00:20.866Z,100.00
2023-11-08T04:02:49.313Z,100.00
2023-11-08T04:05:18.086Z,100.00
2023-11-08T04:07:47.461Z,100.00
2023-11-08T04:10:16.308Z,100.00
2023-11-08T04:12:44.560Z,100.00
2023-11-08T04:15:12.647Z,100.00
2023-11-08T04:17:41.038Z,100.00
2023-11-08T04:20:13.925Z,100.00
2023-11-08T04:22:43.580Z,100.00
2023-11-08T04:25:12.967Z,100.00
2023-11-08T04:27:41.298Z,100.00
2023-11-08T04:30:10.123Z,100.00
2023-11-08T04:32:38.676Z,100.00
2023-11-08T04:35:07.114Z,100.00
2023-11-08T04:37:35.792Z,100.00
2023-11-08T04:40:03.921Z,100.00
2023-11-08T04:42:32.192Z,100.00
2023-11-08T04:45:00.645Z,100.00
2023-11-08T04:47:29.216Z,100.00
2023-11-08T04:49:57.217Z,100.00
2023-11-08T04:52:25.475Z,100.00
2023-11-08T04:54:54.983Z,100.00
2023-11-08T04:57:24.825Z,100.00
2023-11-08T04:59:53.070Z,100.00
2023-11-08T05:02:22.153Z,100.00
2023-11-08T05:04:50.972Z,100.00
2023-11-08T05:07:20.947Z,100.00
2023-11-08T05:09:50.275Z,100.00
2023-11-08T05:12:20.544Z,100.00
2023-11-08T05:54:00.047Z,100.00
2023-11-08T05:56:28.720Z,100.00
2023-11-08T05:58:56.760Z,100.00
2023-11-08T06:01:25.405Z,100.00
2023-11-08T06:03:53.572Z,100.00
2023-11-08T06:06:23.739Z,100.00
2023-11-08T06:08:51.864Z,100.00
2023-11-08T06:11:20.713Z,100.00
2023-11-08T06:13:48.721Z,100.00
2023-11-08T06:16:17.509Z,100.00
2023-11-08T06:18:45.951Z,100.00
2023-11-08T06:21:15.303Z,100.00
2023-11-08T06:23:46.319Z,100.00
2023-11-08T06:26:18.549Z,100.00
2023-11-08T06:28:47.420Z,100.00
2023-11-08T06:31:15.730Z,99.24
2023-11-08T06:33:43.959Z,99.72
2023-11-08T06:36:14.849Z,98.77
2023-11-08T06:38:42.961Z,100.00
2023-11-08T06:41:12.889Z,100.00
2023-11-08T06:43:41.186Z,100.00
2023-11-08T06:46:09.611Z,98.87
2023-11-08T06:48:37.724Z,97.76
2023-11-08T06:51:06.056Z,96.59
2023-11-08T06:53:34.292Z,95.84
2023-11-08T06:56:02.607Z,97.95
2023-11-08T06:58:32.758Z,97.86
2023-11-08T07:01:11.336Z,98.96
2023-11-08T07:03:41.368Z,99.01
2023-11-08T07:06:10.070Z,98.40
2023-11-08T07:08:38.355Z,97.83
2023-11-08T07:11:06.714Z,97.23
2023-11-08T07:13:35.705Z,97.08
2023-11-08T07:16:04.200Z,97.58
2023-11-08T07:18:32.258Z,100.00
2023-11-08T07:21:01.011Z,99.41
2023-11-08T07:23:29.010Z,97.55
2023-11-08T07:25:58.840Z,96.15
2023-11-08T07:28:26.811Z,95.36
2023-11-08T07:30:55.353Z,92.68
2023-11-08T07:33:23.608Z,89.73
2023-11-08T07:35:51.904Z,90.42
2023-11-08T07:38:19.971Z,90.58
2023-11-08T07:40:48.334Z,89.71
2023-11-08T07:43:16.321Z,88.52
2023-11-08T07:45:44.869Z,87.21
2023-11-08T07:48:13.284Z,85.06
2023-11-08T07:50:41.823Z,84.02
2023-11-08T07:53:09.921Z,81.97
2023-11-08T07:55:38.321Z,80.84
2023-11-08T07:58:08.392Z,81.29
2023-11-08T08:00:36.852Z,81.78
2023-11-08T08:03:04.942Z,80.21
2023-11-08T08:05:33.286Z,79.05
2023-11-08T08:08:01.315Z,78.55
2023-11-08T08:10:33.441Z,77.89
2023-11-08T08:13:02.055Z,78.16
2023-11-08T08:15:31.207Z,76.63
2023-11-08T08:18:02.717Z,75.75
2023-11-08T08:20:31.299Z,73.39
2023-11-08T08:22:59.293Z,72.24
2023-11-08T08:25:27.621Z,71.73
2023-11-08T08:27:55.601Z,72.29
2023-11-08T08:30:24.018Z,70.47
2023-11-08T08:32:52.207Z,69.78
2023-11-08T08:35:21.853Z,67.80
2023-11-08T08:37:49.844Z,65.88
2023-11-08T08:40:18.789Z,65.56
2023-11-08T08:42:46.911Z,64.66
2023-11-08T08:45:15.776Z,64.91
2023-11-08T08:47:45.372Z,65.36
2023-11-08T08:50:15.018Z,63.94
2023-11-08T08:52:43.938Z,63.29
2023-11-08T08:55:15.248Z,62.67
2023-11-08T08:57:45.140Z,61.76
2023-11-08T09:00:16.362Z,61.12
2023-11-08T09:02:49.638Z,60.29
2023-11-08T09:05:21.957Z,59.54
2023-11-08T09:07:50.358Z,58.58
2023-11-08T09:10:18.917Z,58.19
2023-11-08T09:12:47.042Z,55.76
2023-11-08T09:15:15.536Z,54.94
2023-11-08T09:17:44.989Z,54.45
2023-11-08T09:20:13.772Z,52.42
2023-11-08T09:22:42.327Z,51.53
2023-11-08T09:25:11.844Z,50.84
2023-11-08T09:27:40.299Z,50.77
2023-11-08T09:30:10.046Z,50.21
2023-11-08T09:32:38.993Z,49.21
2023-11-08T09:35:08.373Z,47.88
2023-11-08T09:37:37.679Z,49.54
2023-11-08T09:40:11.242Z,47.65
2023-11-08T09:42:40.509Z,47.69
2023-11-08T09:45:13.701Z,46.88
2023-11-08T09:47:43.357Z,45.50
2023-11-08T09:50:13.503Z,46.21
2023-11-08T09:52:42.546Z,47.59
2023-11-08T09:55:14.262Z,48.17
2023-11-08T09:57:45.845Z,46.61
2023-11-08T10:00:15.890Z,45.87
2023-11-08T10:02:44.149Z,48.06
2023-11-08T10:05:13.383Z,50.36
2023-11-08T10:07:42.952Z,48.69
2023-11-08T10:10:11.773Z,48.78
2023-11-08T10:12:40.266Z,47.63
2023-11-08T10:15:09.786Z,47.04
2023-11-08T10:19:30.397Z,47.18
2023-11-08T10:20:32.353Z,47.26
2023-11-08T10:23:01.533Z,46.62
2023-11-08T10:25:31.207Z,46.64
2023-11-08T10:28:10.932Z,45.96
2023-11-08T10:30:43.008Z,44.49
2023-11-08T10:33:12.568Z,42.96
2023-11-08T10:35:43.766Z,43.06
2023-11-08T10:38:12.614Z,42.46
2023-11-08T10:40:46.148Z,43.60
2023-11-08T10:43:22.420Z,43.72
2023-11-08T10:45:51.503Z,43.17
2023-11-08T10:48:25.515Z,42.52
2023-11-08T10:53:22.640Z,40.33
2023-11-08T10:56:00.779Z,41.06
2023-11-08T10:58:38.935Z,42.96
2023-11-08T11:01:10.549Z,42.50
2023-11-08T11:03:42.851Z,42.46
2023-11-08T11:06:12.937Z,40.21
2023-11-08T11:08:45.848Z,39.38
2023-11-08T11:11:16.609Z,39.52
2023-11-08T11:13:53.159Z,39.49
2023-11-08T11:16:34.616Z,39.06
2023-11-08T11:19:13.416Z,39.42
2023-11-08T11:21:49.603Z,39.07
2023-11-08T11:24:44.379Z,37.91
2023-11-08T11:27:36.657Z,39.93
2023-11-08T11:30:19.968Z,40.95
2023-11-08T11:32:52.662Z,42.52
2023-11-08T11:35:44.779Z,42.42
2023-11-08T11:38:25.344Z,41.18
2023-11-08T11:43:40.831Z,39.05
2023-11-08T11:46:09.028Z,39.64
2023-11-08T11:48:37.660Z,40.50
2023-11-08T11:51:05.892Z,41.52
2023-11-08T11:53:34.719Z,39.01
2023-11-08T11:56:10.491Z,37.60
2023-11-08T11:58:40.076Z,36.68
2023-11-08T12:01:09.405Z,37.29
2023-11-08T12:03:38.462Z,36.85
2023-11-08T12:06:06.990Z,36.10
2023-11-08T12:08:35.546Z,36.84
2023-11-08T12:11:14.578Z,37.33
2023-11-08T12:13:53.955Z,38.05
2023-11-08T12:16:23.234Z,36.36
2023-11-08T12:18:53.026Z,35.35
2023-11-08T12:21:21.899Z,34.83
2023-11-08T12:23:51.387Z,34.92
2023-11-08T12:26:19.875Z,35.85
2023-11-08T12:28:50.334Z,36.15
2023-11-08T12:31:22.261Z,37.22
2023-11-08T12:33:51.287Z,36.18
2023-11-08T12:36:19.683Z,35.80
2023-11-08T12:38:48.538Z,36.04
2023-11-08T12:41:19.113Z,34.99
2023-11-08T12:44:03.062Z,34.53
2023-11-08T12:46:40.954Z,33.63
2023-11-08T12:49:17.689Z,33.89
2023-11-08T12:51:48.058Z,33.89
2023-11-08T12:54:18.560Z,32.12
2023-11-08T12:56:48.503Z,31.68
2023-11-08T12:59:19.708Z,31.42
2023-11-08T13:01:53.175Z,31.42
2023-11-08T13:04:24.551Z,31.12
2023-11-08T13:06:52.894Z,33.73
2023-11-08T13:09:23.405Z,35.08
2023-11-08T13:11:54.209Z,33.66
2023-11-08T13:14:24.243Z,34.61
2023-11-08T13:16:53.259Z,35.00
2023-11-08T13:19:22.043Z,34.94
2023-11-08T13:21:50.478Z,34.09
2023-11-08T13:24:18.923Z,34.66
2023-11-08T13:26:47.416Z,34.17
2023-11-08T13:29:15.904Z,33.45
2023-11-08T13:31:44.133Z,33.41
2023-11-08T13:34:13.022Z,33.20
2023-11-08T13:36:41.340Z,32.37
2023-11-08T13:39:10.869Z,31.84
2023-11-08T13:41:38.961Z,32.71
2023-11-08T13:44:07.972Z,34.37
2023-11-08T13:46:36.129Z,34.40
2023-11-08T13:49:09.478Z,32.57
2023-11-08T13:51:38.003Z,32.15
2023-11-08T13:54:06.510Z,30.70
2023-11-08T13:56:36.739Z,32.39
2023-11-08T13:59:05.370Z,33.31
2023-11-08T14:01:33.314Z,34.38
2023-11-08T14:04:03.307Z,33.29
2023-11-08T14:06:31.463Z,32.78
2023-11-08T14:09:00.679Z,31.61
2023-11-08T14:11:28.661Z,30.94
2023-11-08T14:13:57.070Z,29.18
2023-11-08T14:16:25.153Z,29.34
2023-11-08T14:18:53.781Z,29.44
2023-11-08T14:21:22.044Z,30.58
2023-11-08T14:23:50.343Z,29.86
2023-11-08T14:26:18.568Z,30.24
2023-11-08T14:28:46.991Z,28.50
2023-11-08T14:31:14.875Z,26.27
2023-11-08T14:33:42.824Z,27.15
2023-11-08T14:36:11.950Z,27.85
2023-11-08T14:38:40.059Z,25.96
2023-11-08T14:41:08.691Z,27.01
2023-11-08T14:43:36.748Z,26.99
2023-11-08T14:46:05.482Z,25.92
2023-11-08T14:48:33.680Z,27.06
2023-11-08T14:51:02.884Z,28.43
2023-11-08T14:53:31.054Z,26.18
2023-11-08T14:55:59.688Z,27.25
2023-11-08T14:58:27.803Z,28.53
2023-11-08T15:00:59.302Z,27.78
2023-11-08T15:03:28.699Z,28.50
2023-11-08T15:05:58.533Z,27.61
2023-11-08T15:09:50.077Z,27.61
2023-11-08T15:11:15.604Z,27.94
2023-11-08T15:13:45.289Z,28.90
2023-11-08T15:16:14.148Z,29.72
2023-11-08T15:18:42.226Z,31.77
2023-11-08T15:21:10.751Z,34.51
2023-11-08T15:23:39.923Z,36.15
2023-11-08T15:26:08.301Z,37.81
2023-11-08T15:28:36.337Z,39.45
2023-11-08T15:31:05.138Z,41.34
2023-11-08T15:33:33.368Z,40.80
2023-11-08T15:36:01.818Z,42.00
2023-11-08T15:38:29.885Z,42.45
2023-11-08T15:40:58.946Z,42.83
2023-11-08T15:43:28.381Z,45.36
2023-11-08T15:45:57.571Z,49.34
2023-11-08T15:48:27.055Z,49.42
2023-11-08T15:50:56.994Z,51.31
2023-11-08T15:53:24.963Z,53.26
2023-11-08T15:55:54.240Z,53.65
2023-11-08T15:58:23.453Z,54.97
2023-11-08T16:00:52.072Z,56.78
2023-11-08T16:03:20.119Z,56.00
2023-11-08T16:05:48.669Z,57.32
2023-11-08T16:08:19.980Z,57.11
2023-11-08T16:10:48.252Z,58.96
2023-11-08T16:13:16.941Z,59.19
2023-11-08T16:15:45.561Z,59.51
2023-11-08T16:18:13.621Z,59.04
2023-11-08T16:20:43.274Z,61.60
2023-11-08T16:23:11.290Z,62.94
2023-11-08T16:25:39.655Z,61.11
2023-11-08T16:28:07.743Z,62.42
2023-11-08T16:31:00.399Z,62.73
2023-11-08T16:33:25.814Z,63.30
2023-11-08T16:35:54.180Z,64.85
2023-11-08T16:38:23.452Z,65.29
2023-11-08T16:40:52.479Z,66.46
2023-11-08T16:46:00.436Z,66.56
2023-11-08T16:48:28.620Z,65.83
2023-11-08T16:50:57.139Z,62.92
2023-11-08T16:53:26.365Z,64.11
2023-11-08T16:55:54.750Z,64.33
2023-11-08T16:58:23.137Z,64.07
2023-11-08T17:00:51.747Z,64.13
2023-11-08T17:03:20.994Z,64.55
2023-11-08T17:05:50.439Z,64.39
2023-11-08T17:08:18.531Z,63.63
2023-11-08T17:10:48.262Z,64.89
2023-11-08T17:13:16.309Z,65.04
2023-11-08T17:15:44.836Z,64.87
2023-11-08T17:18:13.339Z,65.31
2023-11-08T17:20:41.774Z,64.48
2023-11-08T17:23:10.403Z,64.73
2023-11-08T17:25:39.239Z,65.14
2023-11-08T17:28:07.770Z,64.48
2023-11-08T17:30:36.245Z,64.30
2023-11-08T17:33:04.468Z,64.84
2023-11-08T17:35:33.160Z,64.21
2023-11-08T17:38:01.356Z,64.51
2023-11-08T17:40:31.857Z,64.30
2023-11-08T17:43:00.251Z,64.74
2023-11-08T17:45:30.685Z,65.93
2023-11-08T17:47:58.789Z,66.25
2023-11-08T17:50:27.738Z,66.76
2023-11-08T17:52:57.688Z,67.85
2023-11-08T17:55:26.788Z,67.52
2023-11-08T17:57:55.034Z,67.69
2023-11-08T18:00:25.968Z,69.72
2023-11-08T18:02:53.848Z,71.15
2023-11-08T18:05:22.231Z,73.99
2023-11-08T18:07:50.132Z,74.94
2023-11-08T18:10:22.288Z,73.88
2023-11-08T18:12:52.162Z,74.62
2023-11-08T18:15:20.803Z,74.52
2023-11-08T18:17:50.813Z,74.14
2023-11-08T18:20:19.247Z,72.81
2023-11-08T18:22:47.144Z,73.60
2023-11-08T18:25:15.541Z,73.75
2023-11-08T18:27:44.328Z,72.23
2023-11-08T18:30:13.660Z,72.87
2023-11-08T18:32:41.769Z,72.54
2023-11-08T18:35:11.221Z,72.93
2023-11-08T18:37:39.198Z,73.00
2023-11-08T18:40:08.339Z,73.93
2023-11-08T18:42:40.281Z,75.60
2023-11-08T18:45:10.148Z,74.83
2023-11-08T18:47:38.545Z,74.87
2023-11-08T18:50:10.661Z,74.83
2023-11-08T18:52:38.621Z,75.81
2023-11-08T18:55:07.742Z,75.25
2023-11-08T18:57:37.359Z,73.43
2023-11-08T19:00:07.083Z,74.49
2023-11-08T19:02:35.192Z,74.66
2023-11-08T19:05:03.614Z,75.42
2023-11-08T19:07:31.554Z,74.86
2023-11-08T19:10:01.323Z,75.28
2023-11-08T19:12:29.439Z,74.80
2023-11-08T19:14:57.677Z,76.07
2023-11-08T19:17:26.086Z,76.21
2023-11-08T19:19:54.398Z,76.78
2023-11-08T19:22:22.498Z,77.39
2023-11-08T19:24:50.813Z,77.09
2023-11-08T19:27:20.069Z,76.63
2023-11-08T19:29:48.671Z,76.43
2023-11-08T19:32:16.751Z,78.86
2023-11-08T19:34:48.713Z,80.83
2023-11-08T19:37:19.020Z,81.24
2023-11-08T19:39:47.656Z,79.58
2023-11-08T19:42:15.927Z,80.12
2023-11-08T19:44:44.597Z,79.40
2023-11-08T19:47:12.595Z,77.37
2023-11-08T19:49:41.409Z,76.74
2023-11-08T19:52:09.462Z,75.94
2023-11-08T19:54:42.110Z,76.72
2023-11-08T19:57:10.540Z,76.19
2023-11-08T19:59:41.636Z,76.45
2023-11-08T20:02:10.844Z,75.85
2023-11-08T20:04:39.593Z,75.71
2023-11-08T20:07:08.489Z,75.42
2023-11-08T20:09:37.344Z,76.15
2023-11-08T20:12:05.943Z,76.45
2023-11-08T20:14:34.269Z,76.69
2023-11-08T20:17:02.299Z,76.67
2023-11-08T20:19:30.954Z,77.47
2023-11-08T20:21:59.935Z,77.32
2023-11-08T20:24:28.461Z,77.87
2023-11-08T20:26:56.491Z,78.12
2023-11-08T20:29:25.308Z,78.29
2023-11-08T20:31:53.430Z,78.59
2023-11-08T20:34:22.828Z,78.52
2023-11-08T20:36:53.353Z,78.84
2023-11-08T20:39:23.355Z,78.63
2023-11-08T20:41:53.750Z,78.24
2023-11-08T20:44:22.131Z,77.44
2023-11-08T20:46:52.034Z,77.05
2023-11-08T20:49:20.848Z,79.51
2023-11-08T20:51:48.988Z,79.65
2023-11-08T20:54:18.640Z,79.68
2023-11-08T20:56:47.254Z,80.11
2023-11-08T20:59:15.821Z,80.38
2023-11-08T21:01:44.424Z,79.49
2023-11-08T21:04:13.165Z,79.89
2023-11-08T21:06:41.906Z,79.44
2023-11-08T21:09:11.309Z,80.61
2023-11-08T21:11:39.332Z,80.67
2023-11-08T21:14:08.223Z,81.73
2023-11-08T21:16:36.361Z,82.14
2023-11-08T21:19:05.644Z,83.04
2023-11-08T21:21:34.135Z,82.52
2023-11-08T21:24:03.133Z,82.95
2023-11-08T21:26:31.149Z,82.36
2023-11-08T21:28:59.411Z,82.07
2023-11-08T21:31:27.284Z,82.66
2023-11-08T21:33:55.691Z,82.67
2023-11-08T21:36:23.576Z,82.37
2023-11-08T21:38:51.969Z,82.43
2023-11-08T21:41:19.900Z,82.77
2023-11-08T21:43:49.062Z,82.65
2023-11-08T21:46:17.022Z,82.70
2023-11-08T21:48:45.630Z,82.07
2023-11-08T21:51:13.590Z,82.38
2023-11-08T21:53:41.917Z,82.34
2023-11-08T21:56:09.890Z,83.05
2023-11-08T21:58:39.266Z,82.74
2023-11-08T22:01:08.939Z,84.27
2023-11-08T22:03:38.039Z,84.45
2023-11-08T22:06:06.996Z,84.19
2023-11-08T22:08:35.468Z,83.17
2023-11-08T22:11:04.879Z,83.59
2023-11-08T22:13:35.882Z,84.98
2023-11-08T22:16:04.139Z,85.08
2023-11-08T22:18:34.432Z,84.36
2023-11-08T22:21:03.160Z,83.63
2023-11-08T22:23:35.126Z,82.77
2023-11-08T22:26:03.300Z,82.33
2023-11-08T22:28:31.709Z,81.89
2023-11-08T22:31:00.053Z,80.98
2023-11-08T22:33:28.430Z,79.41
2023-11-08T22:35:56.427Z,78.91
2023-11-08T22:38:24.776Z,77.66
2023-11-08T22:40:54.094Z,77.91
2023-11-08T22:43:22.358Z,78.21
2023-11-08T22:45:50.480Z,78.63
2023-11-08T22:48:19.570Z,79.86
2023-11-08T22:50:47.600Z,80.51
2023-11-08T22:53:17.181Z,81.21
2023-11-08T22:55:45.151Z,81.23
2023-11-08T22:58:14.299Z,81.45
2023-11-08T23:00:42.341Z,81.91
2023-11-08T23:03:13.323Z,82.78
2023-11-08T23:05:41.400Z,83.13
2023-11-08T23:08:09.953Z,83.16
2023-11-08T23:10:39.032Z,82.58
2023-11-08T23:13:07.350Z,82.13
2023-11-08T23:15:35.486Z,83.25
2023-11-08T23:18:06.478Z,82.67
2023-11-08T23:20:34.950Z,82.88
2023-11-08T23:23:03.293Z,82.73
2023-11-08T23:25:31.282Z,80.65
2023-11-08T23:28:00.334Z,82.37
2023-11-08T23:30:28.435Z,81.47
2023-11-08T23:32:56.994Z,80.25
2023-11-08T23:35:25.047Z,79.40
2023-11-08T23:37:54.996Z,80.39
2023-11-08T23:40:26.071Z,80.80
2023-11-08T23:42:54.576Z,78.96
2023-11-08T23:45:22.642Z,78.54
2023-11-08T23:47:51.822Z,79.31
2023-11-08T23:50:19.796Z,79.25
2023-11-08T23:52:48.434Z,78.68
2023-11-08T23:55:16.709Z,79.09
2023-11-08T23:57:45.039Z,79.83
